Time;durP1;ratioP1;P1;durP2;ratioP2;P2;SDS_P1;SDS_P2;PMS_P1;PMS_P2;Temp;Humidity;BMP_temperature;BMP_pressure;BME280_temperature;BME280_humidity;BME280_pressure;Samples;Min_cycle;Max_cycle;Signal;HPM_P1;HPM_P2
2021/09/30 00:02:14;;;;;;;3.75;1.25;;;8.20;99.90;;;;;;4872354;29;20076;-91
2021/09/30 00:04:40;;;;;;;12.68;1.15;;;8.20;99.90;;;;;;4873765;29;20029;-91
2021/09/30 00:07:07;;;;;;;6.65;1.27;;;8.20;99.90;;;;;;4886254;29;20041;-91
2021/09/30 00:09:38;;;;;;;5.35;1.05;;;8.20;99.90;;;;;;4869897;29;20024;-92
2021/09/30 00:12:08;;;;;;;4.68;1.10;;;8.20;99.90;;;;;;4867025;29;20036;-92
2021/09/30 00:42:21;;;;;;;7.07;0.90;;;8.10;99.90;;;;;;4900588;29;20088;-92
2021/09/30 00:53:03;;;;;;;5.40;1.15;;;7.90;99.90;;;;;;4902263;29;20033;-92
2021/09/30 02:28:22;;;;;;;8.88;1.38;;;8.50;99.90;;;;;;4921576;29;20355;-92
2021/09/30 02:58:51;;;;;;;7.43;1.30;;;9.10;99.90;;;;;;4921775;29;20142;-91
2021/09/30 03:01:23;;;;;;;8.63;1.02;;;9.20;99.90;;;;;;4904773;29;20024;-90
2021/09/30 03:03:51;;;;;;;9.75;1.10;;;9.30;99.90;;;;;;4920546;29;20039;-91
2021/09/30 03:06:19;;;;;;;6.10;1.00;;;9.40;99.90;;;;;;4904705;29;20027;-91
2021/09/30 03:08:49;;;;;;;9.45;0.98;;;9.40;99.90;;;;;;4904657;29;20498;-91
2021/09/30 03:11:16;;;;;;;9.02;1.58;;;9.40;99.90;;;;;;4905212;29;20076;-92
2021/09/30 03:13:45;;;;;;;9.73;1.27;;;9.50;99.90;;;;;;4908800;29;20446;-92
2021/09/30 03:16:35;;;;;;;4.70;0.90;;;9.50;99.90;;;;;;4912958;29;20028;-92
2021/09/30 03:19:16;;;;;;;8.30;1.52;;;9.50;99.90;;;;;;4913778;29;20032;-91
2021/09/30 03:24:27;;;;;;;8.45;1.10;;;9.50;99.90;;;;;;4925605;29;20068;-90
2021/09/30 03:26:56;;;;;;;6.32;1.15;;;9.60;99.90;;;;;;4923509;29;20040;-91
2021/09/30 03:29:23;;;;;;;8.63;1.27;;;9.60;99.90;;;;;;4884901;29;20111;-91
2021/09/30 03:31:49;;;;;;;6.10;0.82;;;9.60;99.90;;;;;;4866226;29;20092;-91
2021/09/30 03:34:16;;;;;;;7.13;1.05;;;9.60;99.90;;;;;;4882421;29;20446;-91
2021/09/30 03:36:42;;;;;;;5.88;1.40;;;9.60;99.90;;;;;;4877382;29;20040;-90
2021/09/30 03:39:12;;;;;;;6.05;0.90;;;9.60;99.90;;;;;;4881589;29;20029;-91
2021/09/30 03:41:42;;;;;;;7.20;1.00;;;9.60;99.90;;;;;;4866306;29;20037;-92
2021/09/30 03:44:08;;;;;;;5.55;1.33;;;9.60;99.90;;;;;;4865896;29;20037;-92
2021/09/30 03:46:34;;;;;;;5.88;0.70;;;9.70;99.90;;;;;;4866152;29;20125;-93
2021/09/30 03:49:01;;;;;;;3.75;0.93;;;9.70;99.90;;;;;;4865338;29;20459;-91
2021/09/30 03:54:29;;;;;;;13.10;2.47;;;9.70;99.90;;;;;;4872045;29;20067;-93
2021/09/30 03:57:08;;;;;;;11.73;2.08;;;9.70;99.90;;;;;;4899090;29;20084;-92
2021/09/30 03:59:34;;;;;;;9.88;1.23;;;9.70;99.90;;;;;;4883640;29;20027;-92
2021/09/30 04:02:06;;;;;;;6.55;0.90;;;9.70;99.90;;;;;;4883546;29;20028;-92
2021/09/30 04:04:36;;;;;;;7.35;1.63;;;9.70;99.90;;;;;;4883947;29;20088;-91
2021/09/30 04:07:05;;;;;;;5.60;0.90;;;9.70;99.90;;;;;;4883258;29;20487;-91
2021/09/30 04:09:33;;;;;;;10.23;1.20;;;9.70;99.90;;;;;;4884145;29;20108;-92
2021/09/30 04:12:05;;;;;;;7.05;1.30;;;9.70;99.90;;;;;;4884251;29;20108;-92
2021/09/30 04:14:31;;;;;;;9.85;1.20;;;9.70;99.90;;;;;;4884522;29;20032;-92
2021/09/30 04:16:57;;;;;;;6.47;1.35;;;9.70;99.90;;;;;;4884342;29;20032;-93
2021/09/30 04:19:23;;;;;;;6.40;1.00;;;9.70;99.90;;;;;;4884388;29;20039;-91
2021/09/30 04:21:50;;;;;;;5.78;1.10;;;9.70;99.90;;;;;;4892769;29;20084;-92
2021/09/30 04:24:17;;;;;;;3.50;1.00;;;9.70;99.90;;;;;;4899501;29;20029;-91
2021/09/30 04:26:43;;;;;;;6.43;1.20;;;9.70;99.90;;;;;;4902901;29;20032;-93
2021/09/30 04:29:09;;;;;;;6.32;1.17;;;9.70;99.90;;;;;;4918204;29;20028;-91
2021/09/30 04:31:35;;;;;;;8.10;1.35;;;9.70;99.90;;;;;;4902076;29;20095;-92
2021/09/30 04:34:02;;;;;;;6.95;1.85;;;9.80;99.90;;;;;;4902375;29;20119;-94
2021/09/30 04:36:28;;;;;;;4.00;0.90;;;9.70;99.90;;;;;;4902576;29;20033;-93
2021/09/30 04:38:55;;;;;;;9.13;2.38;;;9.80;99.90;;;;;;4901595;29;20028;-93
2021/09/30 04:41:21;;;;;;;5.78;1.15;;;9.80;99.90;;;;;;4902154;29;20028;-91
2021/09/30 04:43:48;;;;;;;7.35;1.13;;;9.70;99.90;;;;;;4917757;29;20053;-92
2021/09/30 04:46:17;;;;;;;6.82;1.08;;;9.70;99.90;;;;;;4901529;29;20055;-92
2021/09/30 04:48:43;;;;;;;8.55;1.00;;;9.80;99.90;;;;;;4901983;29;20036;-93
2021/09/30 04:51:09;;;;;;;7.88;1.25;;;9.70;99.90;;;;;;4902312;29;20072;-92
2021/09/30 04:53:36;;;;;;;3.45;0.80;;;9.80;99.90;;;;;;4902869;29;20434;-91
2021/09/30 04:56:03;;;;;;;8.75;1.23;;;9.80;99.90;;;;;;4902630;29;20130;-93
2021/09/30 04:58:29;;;;;;;7.85;1.40;;;9.70;99.90;;;;;;4886754;29;20059;-93
2021/09/30 05:00:55;;;;;;;13.45;1.10;;;9.70;99.90;;;;;;4917823;29;20039;-92
2021/09/30 05:03:21;;;;;;;7.90;1.40;;;9.70;99.90;;;;;;4904096;29;20024;-93
2021/09/30 05:05:47;;;;;;;8.90;1.40;;;9.70;99.90;;;;;;4906510;29;20052;-93
2021/09/30 05:08:13;;;;;;;7.97;1.55;;;9.80;99.90;;;;;;4906556;29;20043;-91
2021/09/30 05:10:40;;;;;;;11.95;1.45;;;9.70;99.90;;;;;;4906123;29;20024;-92
2021/09/30 05:13:09;;;;;;;4.40;1.02;;;9.70;99.90;;;;;;4906228;29;20036;-93
2021/09/30 05:15:38;;;;;;;12.27;1.00;;;9.70;99.90;;;;;;4906594;29;20028;-93
2021/09/30 05:18:05;;;;;;;3.35;0.80;;;9.60;99.90;;;;;;4922107;29;20043;-92
2021/09/30 05:20:31;;;;;;;5.32;1.08;;;9.70;99.90;;;;;;4906298;29;20044;-92
2021/09/30 05:22:57;;;;;;;4.93;0.70;;;9.60;99.90;;;;;;4906404;29;20032;-92
2021/09/30 05:25:24;;;;;;;7.85;1.45;;;9.60;99.90;;;;;;4906081;29;20111;-93
2021/09/30 05:27:52;;;;;;;3.40;0.90;;;9.60;99.90;;;;;;4905990;29;20127;-92
2021/09/30 05:30:18;;;;;;;5.22;1.10;;;9.60;99.90;;;;;;4905792;29;20028;-92
2021/09/30 05:32:44;;;;;;;4.93;1.15;;;9.50;99.90;;;;;;4906356;29;20386;-92
2021/09/30 05:35:13;;;;;;;4.55;1.23;;;9.50;99.90;;;;;;4921010;29;20059;-92
2021/09/30 05:37:38;;;;;;;5.93;1.50;;;9.60;99.90;;;;;;4905023;29;20479;-93
2021/09/30 05:40:05;;;;;;;8.55;1.48;;;9.60;99.90;;;;;;4905295;29;20035;-93
2021/09/30 05:42:30;;;;;;;8.57;1.60;;;9.60;99.90;;;;;;4905296;29;20024;-93
2021/09/30 05:45:05;;;;;;;6.55;1.60;;;9.50;99.90;;;;;;4905026;29;20021;-93
2021/09/30 05:47:32;;;;;;;4.93;1.38;;;9.50;99.90;;;;;;4905100;29;20042;-93
2021/09/30 05:49:57;;;;;;;7.80;1.40;;;9.50;99.90;;;;;;4905772;29;20469;-93
2021/09/30 05:52:23;;;;;;;7.55;1.50;;;9.50;99.90;;;;;;4917285;29;20039;-94
2021/09/30 05:54:50;;;;;;;7.72;1.45;;;9.50;99.90;;;;;;4887164;29;20055;-93
2021/09/30 05:57:19;;;;;;;5.70;1.10;;;9.50;99.90;;;;;;4889266;29;20525;-93
2021/09/30 05:59:45;;;;;;;3.35;1.13;;;9.50;99.90;;;;;;4894052;29;20032;-94
2021/09/30 06:10:33;;;;;;;3.97;1.67;;;9.60;99.90;;;;;;4921677;29;20031;-93
2021/09/30 06:13:14;;;;;;;6.72;1.38;;;9.60;99.90;;;;;;4889623;29;20035;-94
2021/09/30 06:15:42;;;;;;;3.65;1.92;;;9.60;99.90;;;;;;4920419;29;20040;-93
2021/09/30 06:18:09;;;;;;;3.72;1.33;;;9.60;99.90;;;;;;4903458;29;20043;-94
2021/09/30 06:20:37;;;;;;;5.38;1.80;;;9.60;99.90;;;;;;4904192;29;20016;-93
2021/09/30 06:23:06;;;;;;;7.25;1.60;;;9.60;99.90;;;;;;4904354;29;20123;-93
2021/09/30 06:25:32;;;;;;;3.33;1.60;;;9.60;99.90;;;;;;4906151;29;20020;-93
2021/09/30 06:27:57;;;;;;;3.28;1.58;;;9.70;99.90;;;;;;4904847;29;20036;-94
2021/09/30 06:30:29;;;;;;;6.32;1.45;;;9.60;99.90;;;;;;4905436;29;20020;-94
2021/09/30 06:32:55;;;;;;;2.92;1.65;;;9.60;99.90;;;;;;4907669;29;20065;-92
2021/09/30 06:35:21;;;;;;;8.02;1.90;;;9.70;99.90;;;;;;4916350;29;20092;-93
2021/09/30 06:37:47;;;;;;;4.20;1.83;;;9.70;99.90;;;;;;4916533;29;20043;-92
2021/09/30 06:40:13;;;;;;;6.28;1.85;;;9.70;99.90;;;;;;4907387;29;20092;-92
2021/09/30 06:42:38;;;;;;;7.78;2.92;;;9.70;99.90;;;;;;4904984;29;20043;-93
2021/09/30 06:45:05;;;;;;;5.28;2.50;;;9.70;99.90;;;;;;4904732;29;20027;-93
2021/09/30 06:47:36;;;;;;;5.15;2.42;;;9.70;99.90;;;;;;4903716;29;20497;-93
2021/09/30 06:50:06;;;;;;;2.67;1.98;;;9.70;99.90;;;;;;4905583;29;20032;-94
2021/09/30 06:52:32;;;;;;;9.02;2.75;;;9.80;99.90;;;;;;4905774;29;20036;-96
2021/09/30 06:54:58;;;;;;;3.00;2.10;;;9.80;99.90;;;;;;4905233;29;20059;-93
2021/09/30 06:57:28;;;;;;;8.93;1.95;;;9.80;99.90;;;;;;4904855;29;20121;-92
2021/09/30 06:59:56;;;;;;;3.70;1.85;;;9.80;99.90;;;;;;4904911;29;20028;-94
2021/09/30 07:02:27;;;;;;;6.60;1.77;;;9.80;99.90;;;;;;4897864;29;20032;-93
2021/09/30 07:04:57;;;;;;;3.90;1.80;;;9.90;99.90;;;;;;4893682;29;20463;-96
2021/09/30 07:07:25;;;;;;;4.13;1.60;;;9.80;99.90;;;;;;4893467;29;20045;-93
2021/09/30 07:09:57;;;;;;;3.53;1.75;;;9.90;99.90;;;;;;4895051;29;20491;-93
2021/09/30 07:12:22;;;;;;;1.92;1.60;;;9.90;99.90;;;;;;4931153;29;20055;-96
2021/09/30 07:14:48;;;;;;;2.60;1.73;;;9.90;99.90;;;;;;4898850;29;20043;-94
2021/09/30 07:17:14;;;;;;;4.40;1.55;;;9.90;99.90;;;;;;4895785;29;20036;-94
2021/09/30 07:19:41;;;;;;;5.00;1.98;;;9.90;99.90;;;;;;4894984;29;20524;-94
2021/09/30 07:22:08;;;;;;;4.97;1.75;;;9.90;99.90;;;;;;4899076;29;20557;-93
2021/09/30 07:24:39;;;;;;;3.80;1.85;;;10.00;99.90;;;;;;4913372;23;20055;-94
2021/09/30 07:27:07;;;;;;;5.18;1.77;;;10.00;99.90;;;;;;4925472;29;20038;-93
2021/09/30 07:29:34;;;;;;;5.55;2.13;;;9.90;99.90;;;;;;4912613;29;20034;-92
2021/09/30 07:32:00;;;;;;;3.17;1.80;;;10.00;99.90;;;;;;4904298;29;20066;-93
2021/09/30 07:34:26;;;;;;;3.58;1.88;;;10.00;99.90;;;;;;4903615;29;20035;-94
2021/09/30 07:36:53;;;;;;;5.55;1.80;;;10.00;99.90;;;;;;4904161;29;20446;-94
2021/09/30 07:39:19;;;;;;;2.90;1.63;;;10.10;99.90;;;;;;4909373;29;20025;-94
2021/09/30 07:41:46;;;;;;;4.53;2.13;;;10.00;99.90;;;;;;4905438;29;20028;-94
2021/09/30 07:44:13;;;;;;;6.13;1.70;;;10.10;99.90;;;;;;4905043;29;20032;-93
2021/09/30 07:46:40;;;;;;;9.32;2.05;;;10.10;99.90;;;;;;4904266;29;20036;-92
2021/09/30 07:49:09;;;;;;;9.18;2.00;;;10.10;99.90;;;;;;4903710;29;20038;-93
2021/09/30 07:58:51;;;;;;;4.47;1.55;;;10.10;99.90;;;;;;4898525;23;20193;-92
2021/09/30 08:01:19;;;;;;;5.90;1.55;;;10.10;99.90;;;;;;4934186;29;20086;-93
2021/09/30 08:03:46;;;;;;;1.77;1.05;;;10.10;99.90;;;;;;4948895;29;20031;-92
2021/09/30 08:06:12;;;;;;;7.30;1.50;;;10.10;99.90;;;;;;4940958;29;20031;-93
2021/09/30 08:08:38;;;;;;;4.88;1.88;;;10.10;99.90;;;;;;4940572;29;20067;-94
2021/09/30 08:11:03;;;;;;;8.48;1.75;;;10.10;99.90;;;;;;4941732;29;20476;-93
2021/09/30 08:13:31;;;;;;;7.45;1.42;;;10.10;99.90;;;;;;4941264;29;20672;-94
2021/09/30 08:15:57;;;;;;;3.80;1.70;;;10.20;99.90;;;;;;4941246;29;20027;-92
2021/09/30 08:18:23;;;;;;;7.80;1.30;;;10.20;99.90;;;;;;4937857;29;20035;-94
2021/09/30 08:20:49;;;;;;;5.80;1.33;;;10.20;99.90;;;;;;4940829;29;20032;-93
2021/09/30 08:23:17;;;;;;;5.95;1.50;;;10.20;99.90;;;;;;4940640;29;20034;-93
2021/09/30 08:25:43;;;;;;;8.07;1.70;;;10.20;99.90;;;;;;4944403;29;20027;-93
2021/09/30 08:28:10;;;;;;;6.60;1.55;;;10.20;99.90;;;;;;4949755;29;20147;-95
2021/09/30 08:30:36;;;;;;;3.53;1.40;;;10.30;99.90;;;;;;4966731;28;20026;-94
2021/09/30 08:33:03;;;;;;;3.10;1.58;;;10.30;99.90;;;;;;4966477;28;20055;-92
2021/09/30 08:35:28;;;;;;;5.07;1.45;;;10.30;99.90;;;;;;4949651;28;20099;-93
2021/09/30 08:37:54;;;;;;;6.85;1.30;;;10.30;99.90;;;;;;4956985;29;20043;-93
2021/09/30 08:40:20;;;;;;;6.43;1.17;;;10.30;99.90;;;;;;4952930;29;20054;-93
2021/09/30 08:42:52;;;;;;;7.68;1.35;;;10.40;99.90;;;;;;4955095;29;20031;-92
2021/09/30 08:45:22;;;;;;;7.25;1.70;;;10.40;99.90;;;;;;4942607;29;20191;-92
2021/09/30 08:47:59;;;;;;;3.80;1.43;;;10.40;99.90;;;;;;4960807;28;20042;-92
2021/09/30 08:50:38;;;;;;;;;;;;;;;;;;;;;
2021/09/30 08:53:12;;;;;;;5.25;1.60;;;10.50;99.90;;;;;;4977938;28;20110;-94
2021/09/30 08:55:39;;;;;;;7.45;1.67;;;10.50;99.90;;;;;;4961308;28;20063;-93
2021/09/30 08:58:08;;;;;;;8.35;1.50;;;10.50;99.90;;;;;;4960263;28;20081;-93
2021/09/30 09:00:44;;;;;;;6.78;1.63;;;10.50;99.90;;;;;;4960456;28;20105;-93
2021/09/30 09:03:11;;;;;;;9.27;2.45;;;10.60;99.90;;;;;;4960305;28;20098;-93
2021/09/30 09:05:38;;;;;;;4.22;1.42;;;10.70;99.90;;;;;;4959113;28;20651;-93
2021/09/30 09:08:10;;;;;;;9.15;2.28;;;10.60;99.90;;;;;;4959401;28;20488;-92
2021/09/30 09:10:51;;;;;;;3.88;1.25;;;10.70;99.90;;;;;;4959274;28;20093;-91
2021/09/30 09:13:18;;;;;;;8.43;2.08;;;10.70;99.90;;;;;;4946674;28;20027;-92
2021/09/30 09:15:54;;;;;;;4.57;1.10;;;10.70;99.90;;;;;;4959314;28;20048;-92
2021/09/30 09:18:27;;;;;;;4.88;1.40;;;10.80;99.90;;;;;;4959638;28;20035;-92
2021/09/30 09:21:07;;;;;;;5.53;1.40;;;10.90;99.90;;;;;;4958979;28;20031;-92
2021/09/30 09:23:38;;;;;;;9.95;2.00;;;10.90;99.90;;;;;;4959102;28;20392;-92
2021/09/30 09:26:11;;;;;;;6.65;1.33;;;11.00;99.90;;;;;;4954180;29;20027;-94
2021/09/30 09:28:39;;;;;;;4.82;1.65;;;11.00;99.90;;;;;;4940434;29;20035;-93
2021/09/30 09:31:04;;;;;;;9.77;2.35;;;11.00;99.90;;;;;;4951767;28;20086;-92
2021/09/30 09:33:34;;;;;;;6.00;1.75;;;11.10;99.90;;;;;;4959457;28;20338;-91
2021/09/30 09:36:10;;;;;;;8.43;3.00;;;11.10;99.90;;;;;;4959893;28;20049;-91
2021/09/30 09:38:42;;;;;;;5.93;1.50;;;11.10;99.90;;;;;;4960106;28;20026;-94
2021/09/30 09:41:09;;;;;;;7.03;1.48;;;11.20;99.90;;;;;;4959878;28;20074;-92
2021/09/30 09:43:39;;;;;;;3.35;1.55;;;11.20;99.90;;;;;;4960376;28;20029;-94
2021/09/30 09:46:34;;;;;;;11.40;2.00;;;11.30;99.90;;;;;;4967295;28;20027;-95
2021/09/30 09:49:07;;;;;;;9.65;1.90;;;11.30;99.90;;;;;;4968598;28;20046;-94
2021/09/30 09:51:45;;;;;;;5.50;1.58;;;11.30;99.90;;;;;;4970088;28;20015;-92
2021/09/30 09:54:14;;;;;;;6.70;1.75;;;11.30;99.90;;;;;;4968674;28;20031;-95
2021/09/30 09:56:41;;;;;;;6.78;1.63;;;11.40;99.90;;;;;;4965198;28;20039;-94
2021/09/30 09:59:09;;;;;;;8.05;1.50;;;11.40;99.90;;;;;;4962517;28;20058;-93
2021/09/30 10:01:41;;;;;;;7.13;1.90;;;11.40;99.90;;;;;;4962793;28;20053;-93
2021/09/30 10:04:07;;;;;;;7.57;1.60;;;11.50;99.90;;;;;;4962112;28;20112;-93
2021/09/30 10:06:39;;;;;;;10.25;1.63;;;11.50;99.90;;;;;;4962122;28;20026;-93
2021/09/30 10:09:07;;;;;;;8.95;1.80;;;11.50;99.90;;;;;;4961702;28;20042;-94
2021/09/30 10:11:34;;;;;;;15.25;2.42;;;11.60;99.90;;;;;;4961521;28;20026;-93
2021/09/30 10:14:04;;;;;;;4.43;1.40;;;11.70;99.90;;;;;;4961300;28;20038;-92
2021/09/30 10:16:30;;;;;;;7.15;1.33;;;11.70;99.90;;;;;;4963117;28;20054;-91
2021/09/30 10:19:15;;;;;;;10.85;1.90;;;11.80;99.90;;;;;;4961328;28;20097;-91
2021/09/30 10:21:41;;;;;;;10.57;2.72;;;11.80;99.90;;;;;;4961410;28;20027;-92
2021/09/30 10:24:18;;;;;;;7.82;1.95;;;11.90;99.90;;;;;;4947279;28;20028;-91
2021/09/30 10:26:51;;;;;;;5.28;1.92;;;11.90;99.90;;;;;;4941971;29;20043;-91
2021/09/30 10:29:45;;;;;;;11.02;1.38;;;11.90;99.90;;;;;;4942080;29;20082;-92
2021/09/30 10:32:13;;;;;;;6.82;1.77;;;12.00;99.90;;;;;;4941806;29;20062;-93
2021/09/30 10:34:42;;;;;;;4.78;1.30;;;12.10;99.90;;;;;;4942200;29;20023;-94
2021/09/30 10:37:20;;;;;;;9.50;1.42;;;12.20;99.90;;;;;;4941528;29;20035;-92
2021/09/30 10:40:18;;;;;;;11.20;1.38;;;12.30;99.90;;;;;;4941981;29;20114;-90
2021/09/30 10:42:48;;;;;;;6.57;1.70;;;12.40;99.90;;;;;;4942997;29;20027;-91
2021/09/30 10:45:15;;;;;;;6.57;1.05;;;12.50;99.90;;;;;;4941397;29;20023;-91
2021/09/30 10:47:42;;;;;;;8.48;1.52;;;12.70;99.90;;;;;;4944080;29;20493;-90
2021/09/30 10:50:08;;;;;;;6.05;1.10;;;12.70;99.90;;;;;;4934937;29;20023;-92
2021/09/30 10:52:48;;;;;;;4.60;1.05;;;12.80;99.90;;;;;;4931799;29;20067;-92
2021/09/30 10:55:16;;;;;;;9.18;1.88;;;13.00;99.90;;;;;;4932217;29;20119;-91
2021/09/30 10:57:47;;;;;;;6.82;1.40;;;13.10;99.90;;;;;;4934511;28;20464;-92
2021/09/30 11:00:35;;;;;;;4.80;1.00;;;13.20;99.90;;;;;;4938118;29;20059;-93
2021/09/30 11:03:01;;;;;;;4.10;0.90;;;13.40;99.90;;;;;;4930115;29;20039;-92
2021/09/30 11:06:11;;;;;;;7.00;1.60;;;13.50;99.90;;;;;;4930495;29;20497;-92
2021/09/30 11:08:37;;;;;;;5.50;0.80;;;13.60;99.90;;;;;;4923693;29;20110;-91
2021/09/30 11:11:06;;;;;;;2.35;0.80;;;13.60;99.90;;;;;;4930403;29;20031;-92
2021/09/30 11:13:44;;;;;;;7.78;1.10;;;13.60;99.90;;;;;;4928719;29;20019;-91
2021/09/30 11:16:20;;;;;;;3.85;0.82;;;13.60;99.90;;;;;;4934680;29;20122;-91
2021/09/30 11:18:54;;;;;;;4.70;0.80;;;13.60;99.90;;;;;;4931704;29;20122;-91
2021/09/30 11:21:32;;;;;;;4.50;0.80;;;13.60;99.90;;;;;;4932473;29;20039;-92
2021/09/30 11:24:07;;;;;;;2.50;0.80;;;13.60;99.90;;;;;;4933720;29;20019;-93
2021/09/30 11:26:40;;;;;;;5.45;0.90;;;13.50;99.90;;;;;;4928637;29;20042;-92
2021/09/30 11:31:47;;;;;;;;;;;13.50;99.90;;;;;;4948507;29;20383;-92
2021/09/30 11:34:33;;;;;;;3.08;1.00;;;13.50;99.90;;;;;;4931047;29;20427;-91
2021/09/30 11:37:14;;;;;;;3.35;0.90;;;13.50;99.90;;;;;;4931542;29;20024;-94
2021/09/30 11:39:41;;;;;;;4.30;0.85;;;13.40;99.90;;;;;;4928841;29;20035;-92
2021/09/30 11:42:07;;;;;;;4.65;1.05;;;13.40;99.90;;;;;;4929372;29;20024;-92
2021/09/30 11:44:32;;;;;;;5.15;1.38;;;13.40;99.90;;;;;;4936782;29;20373;-92
2021/09/30 11:46:59;;;;;;;3.70;1.25;;;13.30;99.90;;;;;;4940821;29;20027;-91
2021/09/30 11:49:26;;;;;;;5.82;1.50;;;13.30;99.90;;;;;;4939852;29;20061;-92
2021/09/30 11:52:11;;;;;;;3.17;1.30;;;13.30;99.90;;;;;;4939389;29;20035;-91
2021/09/30 11:54:36;;;;;;;3.38;1.20;;;13.30;99.90;;;;;;4939761;29;20147;-91
2021/09/30 11:57:03;;;;;;;6.43;1.27;;;13.30;99.90;;;;;;4939769;29;20497;-91
2021/09/30 11:59:31;;;;;;;5.45;1.10;;;13.30;99.90;;;;;;4939190;29;20489;-91
2021/09/30 12:02:02;;;;;;;2.60;1.30;;;13.30;99.90;;;;;;4939814;29;20096;-92
2021/09/30 12:04:31;;;;;;;3.28;1.00;;;13.30;99.90;;;;;;4940012;29;20034;-91
2021/09/30 12:06:57;;;;;;;3.15;1.20;;;13.30;99.90;;;;;;4939429;29;20023;-91
2021/09/30 12:09:23;;;;;;;3.25;0.77;;;13.40;99.90;;;;;;4939895;29;20027;-92
2021/09/30 12:11:51;;;;;;;3.40;0.85;;;13.40;99.90;;;;;;4939856;29;20042;-91
2021/09/30 12:14:20;;;;;;;2.05;0.95;;;13.50;99.90;;;;;;4939757;28;20023;-90
2021/09/30 12:16:53;;;;;;;4.05;1.52;;;13.50;99.90;;;;;;4939778;29;20062;-92
2021/09/30 12:19:30;;;;;;;2.65;0.95;;;13.70;99.90;;;;;;4939988;29;20029;-91
2021/09/30 12:21:56;;;;;;;5.90;2.70;;;13.70;99.90;;;;;;4939513;29;20031;-92
2021/09/30 12:24:30;;;;;;;3.97;1.00;;;13.80;99.90;;;;;;4940045;29;20032;-92
2021/09/30 12:26:56;;;;;;;4.25;1.00;;;13.80;99.90;;;;;;4940241;29;20067;-92
2021/09/30 12:29:31;;;;;;;4.75;1.10;;;13.80;99.90;;;;;;4939639;29;20019;-91
2021/09/30 12:32:03;;;;;;;3.25;1.20;;;13.80;99.90;;;;;;4940872;29;20027;-92
2021/09/30 12:34:29;;;;;;;4.40;1.80;;;13.80;99.90;;;;;;4940007;29;20481;-93
2021/09/30 12:37:51;;;;;;;5.57;1.70;;;13.80;99.90;;;;;;4941766;29;20057;-93
2021/09/30 12:40:26;;;;;;;5.00;0.77;;;13.90;99.90;;;;;;4932631;29;20039;-92
2021/09/30 12:43:19;;;;;;;5.10;0.90;;;13.90;99.90;;;;;;4943189;29;20039;-92
2021/09/30 12:45:56;;;;;;;2.45;0.70;;;13.90;99.90;;;;;;4939138;29;20031;-92
2021/09/30 12:48:31;;;;;;;1.70;0.80;;;14.00;99.90;;;;;;4939842;29;20527;-91
2021/09/30 12:51:10;;;;;;;1.17;0.70;;;14.10;99.90;;;;;;4942280;29;20027;-92
2021/09/30 12:53:41;;;;;;;2.42;0.77;;;14.10;99.90;;;;;;4940897;29;20058;-90
2021/09/30 12:56:09;;;;;;;1.38;0.68;;;14.20;99.90;;;;;;4943694;29;20468;-92
2021/09/30 12:58:38;;;;;;;1.98;0.70;;;14.40;99.90;;;;;;4949836;28;20055;-92
2021/09/30 13:01:30;;;;;;;1.75;0.60;;;14.50;99.90;;;;;;4946229;29;20032;-92
2021/09/30 13:04:10;;;;;;;3.67;1.52;;;14.70;99.90;;;;;;4946891;29;20023;-91
2021/09/30 13:06:37;;;;;;;0.57;0.32;;;14.80;99.90;;;;;;4946263;29;20506;-93
2021/09/30 13:09:04;;;;;;;0.93;0.88;;;14.90;99.90;;;;;;4944264;29;20047;-92
2021/09/30 13:11:33;;;;;;;2.28;1.90;;;15.00;99.90;;;;;;4940707;29;20078;-91
2021/09/30 13:14:16;;;;;;;0.98;0.80;;;15.00;99.90;;;;;;4939337;29;20027;-91
2021/09/30 13:16:47;;;;;;;1.30;0.70;;;15.00;99.90;;;;;;4942715;28;20025;-91
2021/09/30 13:19:12;;;;;;;0.98;0.50;;;15.10;99.90;;;;;;4956670;28;20023;-92
2021/09/30 13:22:08;;;;;;;0.63;0.50;;;15.10;99.90;;;;;;4952259;28;20037;-93
2021/09/30 13:24:38;;;;;;;0.47;0.47;;;15.20;99.90;;;;;;4906712;29;20039;-92
2021/09/30 13:27:07;;;;;;;1.65;0.50;;;15.20;99.90;;;;;;4923891;29;20042;-92
2021/09/30 13:29:33;;;;;;;0.52;0.52;;;15.20;99.90;;;;;;4923799;29;20036;-93
2021/09/30 13:31:59;;;;;;;2.67;0.52;;;15.20;99.90;;;;;;4923967;29;20036;-95
2021/09/30 13:34:25;;;;;;;1.08;0.70;;;15.20;99.90;;;;;;4924260;29;20039;-93
2021/09/30 13:36:52;;;;;;;1.33;0.73;;;15.30;99.90;;;;;;4924720;29;20027;-93
2021/09/30 13:39:18;;;;;;;4.75;1.95;;;15.30;99.90;;;;;;4924283;29;20036;-93
2021/09/30 13:41:45;;;;;;;3.50;1.77;;;15.30;99.90;;;;;;4924317;29;20028;-94
2021/09/30 13:44:13;;;;;;;0.57;0.47;;;15.30;99.90;;;;;;4924030;29;20576;-92
2021/09/30 13:46:39;;;;;;;2.00;1.42;;;15.30;99.90;;;;;;4924163;29;20485;-93
2021/09/30 13:49:04;;;;;;;0.85;0.63;;;15.40;99.90;;;;;;4923702;29;20050;-92
2021/09/30 13:51:31;;;;;;;6.07;3.15;;;15.40;99.90;;;;;;4938506;29;20481;-93
2021/09/30 13:56:38;;;;;;;3.95;2.03;;;15.30;99.90;;;;;;5060793;23;20060;-96
2021/09/30 13:59:04;;;;;;;10.98;4.65;;;15.20;99.90;;;;;;4908773;29;20092;-93
2021/09/30 14:01:30;;;;;;;0.88;0.63;;;15.20;99.90;;;;;;4909703;29;20111;-93
2021/09/30 14:03:56;;;;;;;2.97;0.90;;;15.20;99.90;;;;;;4910710;29;20071;-93
2021/09/30 14:06:22;;;;;;;3.13;1.35;;;15.20;99.90;;;;;;4913938;29;20036;-94
2021/09/30 14:08:52;;;;;;;3.05;1.00;;;15.30;99.90;;;;;;4914816;29;20040;-91
2021/09/30 14:11:32;;;;;;;2.03;1.43;;;15.30;99.90;;;;;;4918612;29;20055;-94
2021/09/30 14:13:57;;;;;;;2.05;1.10;;;15.30;99.90;;;;;;4919932;29;20285;-93
2021/09/30 14:16:24;;;;;;;2.17;0.88;;;15.30;99.90;;;;;;4907191;29;20048;-94
2021/09/30 14:18:51;;;;;;;2.15;1.23;;;15.30;99.90;;;;;;4893793;29;20437;-95
2021/09/30 14:21:20;;;;;;;2.20;1.10;;;15.30;99.90;;;;;;4897306;29;20052;-95
2021/09/30 14:23:47;;;;;;;8.27;3.67;;;15.30;99.90;;;;;;4889976;29;20044;-94
2021/09/30 14:26:16;;;;;;;3.25;1.83;;;15.30;99.90;;;;;;4890918;29;20035;-93
2021/09/30 14:28:42;;;;;;;2.55;0.98;;;15.30;99.90;;;;;;4885654;29;20559;-94
2021/09/30 14:31:08;;;;;;;3.70;1.73;;;15.30;99.90;;;;;;4878047;29;20052;-94
2021/09/30 14:33:34;;;;;;;0.68;0.50;;;15.30;99.90;;;;;;4873866;29;20043;-95
2021/09/30 14:36:01;;;;;;;1.95;1.25;;;15.40;99.90;;;;;;4876802;29;20020;-93
2021/09/30 14:38:27;;;;;;;0.93;0.50;;;15.40;99.90;;;;;;4875689;29;20029;-94
2021/09/30 14:40:56;;;;;;;3.70;1.30;;;15.40;99.90;;;;;;4908955;29;20028;-93
2021/09/30 14:43:24;;;;;;;0.85;0.60;;;15.50;99.90;;;;;;4908348;29;20126;-91
2021/09/30 14:45:59;;;;;;;1.85;1.20;;;15.50;99.90;;;;;;4883387;29;20402;-95
2021/09/30 14:48:25;;;;;;;1.80;0.80;;;15.50;99.90;;;;;;4882977;29;20119;-94
2021/09/30 14:50:53;;;;;;;5.60;2.05;;;15.50;99.90;;;;;;4883631;29;20512;-93
2021/09/30 14:53:19;;;;;;;0.80;0.63;;;15.50;99.90;;;;;;4882764;29;20569;-92
2021/09/30 14:55:45;;;;;;;1.67;1.45;;;15.50;99.90;;;;;;4888926;29;20072;-91
2021/09/30 14:58:11;;;;;;;0.75;0.40;;;15.50;99.90;;;;;;4898363;29;20147;-92
2021/09/30 15:00:37;;;;;;;0.80;0.80;;;15.40;99.90;;;;;;4901168;29;20179;-94
2021/09/30 15:03:05;;;;;;;0.63;0.63;;;15.40;99.90;;;;;;4902592;29;20039;-94
2021/09/30 15:05:33;;;;;;;1.98;1.77;;;15.40;99.90;;;;;;4934145;29;20151;-92
2021/09/30 15:07:59;;;;;;;2.80;2.15;;;15.40;99.90;;;;;;4902657;29;20055;-91
2021/09/30 15:10:25;;;;;;;2.70;2.50;;;15.40;99.90;;;;;;4933961;29;20107;-93
2021/09/30 15:12:51;;;;;;;1.85;1.08;;;15.30;99.90;;;;;;4934002;29;20036;-92
2021/09/30 15:15:17;;;;;;;1.17;0.80;;;15.30;99.90;;;;;;4934152;29;20059;-92
2021/09/30 15:23:04;;;;;;;0.57;0.57;;;15.20;99.90;;;;;;4897329;29;20036;-92
2021/09/30 15:25:29;;;;;;;0.65;0.47;;;15.20;99.90;;;;;;4934143;29;20494;-94
2021/09/30 15:27:59;;;;;;;0.30;0.30;;;15.30;99.90;;;;;;4933939;29;20079;-94
2021/09/30 15:30:25;;;;;;;0.30;0.30;;;15.20;99.90;;;;;;4934534;29;20028;-92
2021/09/30 15:32:53;;;;;;;0.30;0.30;;;15.30;99.90;;;;;;4934614;29;20079;-93
2021/09/30 15:35:19;;;;;;;0.50;0.50;;;15.30;99.90;;;;;;4935141;29;20024;-94
2021/09/30 15:37:47;;;;;;;0.82;0.60;;;15.30;99.90;;;;;;4935215;29;20489;-92
2021/09/30 15:40:15;;;;;;;1.40;0.30;;;15.30;99.90;;;;;;4934539;29;20024;-93
2021/09/30 15:42:42;;;;;;;0.38;0.15;;;15.30;99.90;;;;;;4933406;29;20032;-93
2021/09/30 15:45:08;;;;;;;0.32;0.32;;;15.30;99.90;;;;;;4934223;29;20024;-94
2021/09/30 15:47:33;;;;;;;0.20;0.20;;;15.20;99.90;;;;;;4933365;29;20044;-93
2021/09/30 15:49:59;;;;;;;0.80;0.40;;;15.20;99.90;;;;;;4933507;29;20028;-93
2021/09/30 15:52:25;;;;;;;0.75;0.20;;;15.20;99.90;;;;;;4933991;29;20035;-94
2021/09/30 15:54:50;;;;;;;2.10;0.35;;;15.20;99.90;;;;;;4933296;29;20032;-92
2021/09/30 15:57:18;;;;;;;4.45;0.57;;;15.20;99.90;;;;;;4901805;29;20042;-91
2021/09/30 15:59:44;;;;;;;0.20;0.20;;;15.10;99.90;;;;;;4933149;29;20024;-92
2021/09/30 16:02:10;;;;;;;1.63;0.28;;;15.10;99.90;;;;;;4901958;29;20032;-91
2021/09/30 16:04:35;;;;;;;0.20;0.20;;;15.10;99.90;;;;;;4901803;29;20180;-91
2021/09/30 16:07:01;;;;;;;0.77;0.50;;;15.10;99.90;;;;;;4901378;29;20024;-91
2021/09/30 16:09:27;;;;;;;0.88;0.60;;;15.10;99.90;;;;;;4902115;29;20040;-91
2021/09/30 16:11:53;;;;;;;0.22;0.20;;;15.00;99.90;;;;;;4903455;29;20021;-91